Terminal Aerodrome Forecast
Issued by NWS Lake Charles, LA

Home | Current Version | Previous Version | Text Only | Print | Product List | Glossary On
Versions: 1 2 3 4 5 6 7 8 9 10 11 12 13
691
FTUS44 KLCH 221127
TAFAEX
TAF
KAEX 221127Z 2212/2312 VRB05KT P6SM VCTS BKN035CB
      TEMPO 2212/2213 36015G25KT 2SM TSRA BKN015CB
     FM221300 03008KT 6SM -TSRA FEW015CB OVC090
     FM221400 VRB05KT P6SM -RA SCT015 OVC090
     FM222000 34005KT P6SM SCT250=

USA.gov is the U.S. government's official web portal to all federal, state and local government web resources and services.